Latest Weather Observations for Mount Crawford

IDS60901

Issued at 10:01 pm CDT Tuesday 23 October 2018 (issued every 10 minutes, with the page automatically refreshed every 10 minutes)

About weather observations | Map of Adelaide area stations | Latest observations for Adelaide area | Other Formats
Station Details ID: 023878 Name: MOUNT CRAWFORD AWS Lat: -34.73 Lon: 138.93 Height: 525.0 m
Data from the previous 72 hours. | See also: Recent months at Mount Crawford
Date/Time
CDT
Temp
°C
App
Temp
°C
Dew
Point
°C
Rel
Hum
%
Delta-T
°C
Wind Press
QNH
hPa
Press
MSL
hPa
Rain since
9am
mm
Dir  Spd
km/h
Gust
km/h
Spd
kts
Gust
kts
23/10:00pm 6.8 1.7 3.9 82 1.3 SE 20 30 11 16 1021.6 1021.0 0.0
23/09:30pm 7.2 2.0 3.6 78 1.6 SSE 20 30 11 16 1021.5 1020.9 0.0
23/09:00pm 7.6 2.4 3.5 75 1.8 SSE 20 32 11 17 1021.3 1020.7 0.0
23/08:30pm 8.1 2.6 4.1 76 1.8 SSE 22 30 12 16 1021.0 1020.5 0.0
23/08:00pm 8.6 3.6 4.6 76 1.8 SSE 20 26 11 14 1020.7 1020.1 0.0
23/07:30pm 9.3 4.9 4.7 73 2.1 SSE 17 22 9 12 1020.3 1019.7 0.0
23/07:00pm 10.1 4.8 4.9 70 2.4 S 22 30 12 16 1019.9 1019.3 0.0
23/06:30pm 11.5 6.9 5.8 68 2.7 S 19 24 10 13 1019.5 1018.9 0.0
23/06:00pm 13.7 9.6 2.3 46 5.1 WSW 13 19 7 10 1018.9 1018.3 0.0
23/05:30pm 14.0 8.8 2.3 45 5.3 WSW 19 28 10 15 1018.7 1018.1 0.0
23/05:00pm 14.5 9.8 3.0 46 5.3 WSW 17 26 9 14 1018.5 1017.9 0.0
23/04:30pm 14.8 9.3 2.0 42 5.8 SW 20 33 11 18 1018.3 1017.7 0.0
23/04:00pm 14.9 9.0 4.0 48 5.2 W 24 35 13 19 1018.0 1017.4 0.0
23/03:30pm 15.0 9.0 3.5 46 5.4 WSW 24 39 13 21 1018.1 1017.5 0.0
23/03:00pm 14.7 9.3 4.7 51 4.8 WSW 22 35 12 19 1018.0 1017.4 0.0
23/02:30pm 14.8 9.7 4.2 49 5.0 WSW 20 32 11 17 1018.2 1017.6 0.0
23/02:00pm 15.1 9.4 6.7 57 4.2 WSW 26 39 14 21 1018.2 1017.6 0.0
23/01:30pm 14.2 8.2 5.3 55 4.3 WSW 26 39 14 21 1018.1 1017.5 0.0
23/01:00pm 13.7 7.7 5.1 56 4.1 WSW 26 35 14 19 1017.8 1017.2 0.0
23/12:30pm 13.0 7.3 6.6 65 3.2 WSW 26 37 14 20 1018.0 1017.4 0.0
23/12:00pm 13.2 8.0 5.4 59 3.7 WSW 22 35 12 19 1018.1 1017.5 0.0
23/11:30am 12.1 6.9 5.3 63 3.2 WSW 22 35 12 19 1018.1 1017.5 0.0
23/11:00am 11.1 5.7 6.3 72 2.3 WSW 24 39 13 21 1018.0 1017.4 0.0
23/10:30am 11.8 7.2 5.4 65 3.0 WSW 19 30 10 16 1017.8 1017.2 0.0
23/10:00am 12.7 8.2 6.3 65 3.1 WSW 19 30 10 16 1017.8 1017.2 0.0
23/09:30am 11.5 6.7 4.7 63 3.2 WSW 19 35 10 19 1017.6 1016.9 0.0
23/09:00am 11.0 6.5 4.0 62 3.2 WSW 17 24 9 13 1017.4 1016.7 0.0
23/08:30am 9.9 5.6 5.3 73 2.2 WSW 17 26 9 14 1017.2 1016.5 0.0
23/08:00am 8.9 6.0 8.3 96 0.3 WSW 13 20 7 11 1016.9 1016.3 0.0
23/07:30am 8.2 4.9 8.2 100 0.0 WSW 15 19 8 10 1016.4 1015.8 0.0
23/07:00am 8.5 6.3 7.7 95 0.4 WSW 9 13 5 7 1015.9 1015.2 0.0
23/06:30am 8.0 5.0 7.7 98 0.1 WSW 13 20 7 11 1015.4 1014.7 0.0
23/06:00am 7.8 4.0 7.4 97 0.2 WSW 17 22 9 12 1014.9 1014.3 0.0
23/05:30am 8.2 4.4 7.4 95 0.4 WSW 17 24 9 13 1014.5 1013.9 0.0
23/05:00am 8.4 4.0 7.5 94 0.4 WSW 20 28 11 15 1014.2 1013.5 0.0
23/04:30am 8.4 4.1 7.2 92 0.6 WSW 19 24 10 13 1013.9 1013.2 0.0
23/04:00am 9.0 4.6 7.5 90 0.7 WSW 20 30 11 16 1014.0 1013.3 0.0
23/03:30am 9.1 5.3 7.7 91 0.7 WSW 17 24 9 13 1014.0 1013.3 0.0
23/03:00am 9.4 5.9 7.2 86 1.1 WSW 15 28 8 15 1014.1 1013.4 0.0
23/02:30am 9.7 6.5 6.8 82 1.4 WSW 13 19 7 10 1014.0 1013.3 0.0
23/02:00am 10.2 7.1 7.1 81 1.5 WSW 13 20 7 11 1014.1 1013.4 0.0
23/01:30am 10.1 7.8 7.5 84 1.3 SW 9 13 5 7 1014.2 1013.5 0.0
23/01:00am 10.5 8.3 7.9 84 1.3 SSE 9 11 5 6 1014.0 1013.3 0.0
23/12:30am 11.0 8.5 8.1 82 1.5 S 11 13 6 7 1014.3 1013.6 0.0
23/12:00am 11.4 8.1 8.1 80 1.7 SSW 15 20 8 11 1013.9 1013.2 0.0
 
Date/Time
CDT
Temp
°C
App
Temp
°C
Dew
Point
°C
Rel
Hum
%
Delta-T
°C
Wind Press
QNH
hPa
Press
MSL
hPa
Rain since
9am
mm
Dir  Spd
km/h
Gust
km/h
Spd
kts
Gust
kts
22/11:30pm 11.7 8.1 8.4 80 1.7 SSW 17 22 9 12 1013.6 1012.9 0.0
22/11:00pm 11.8 8.2 8.3 79 1.8 S 17 20 9 11 1013.3 1012.6 0.0
22/10:30pm 12.0 8.3 7.9 76 2.1 S 17 22 9 12 1013.2 1012.5 0.0
22/10:00pm 12.5 8.2 6.8 68 2.8 SSE 19 24 10 13 1013.3 1012.6 0.0
22/09:30pm 13.3 8.8 4.2 54 4.3 SSE 17 22 9 12 1012.6 1011.9 0.0
22/09:00pm 13.9 8.3 3.7 50 4.8 S 22 28 12 15 1012.0 1011.3 0.0
22/08:30pm 14.7 9.3 2.3 43 5.7 SSE 20 28 11 15 1011.6 1010.9 0.0
22/08:00pm 15.4 9.7 2.6 42 5.9 S 22 32 12 17 1010.9 1010.2 0.0
22/07:30pm 17.6 13.2 4.9 43 6.3 S 17 22 9 12 1010.5 1009.8 0.0
22/07:00pm 18.5 13.7 4.7 40 6.8 SSW 19 24 10 13 1010.3 1009.6 0.0
22/06:30pm 19.9 16.0 3.6 34 8.0 SW 13 19 7 10 1010.1 1009.4 0.0
22/06:00pm 22.0 17.5 2.2 27 9.6 SW 15 24 8 13 1010.1 1009.4 0.0
22/05:30pm 22.6 17.5 3.2 28 9.6 SW 19 26 10 14 1009.9 1009.2 0.0
22/05:00pm 23.1 18.1 3.6 28 9.7 SW 19 32 10 17 1010.0 1009.3 0.0
22/04:30pm 24.7 19.5 3.4 25 10.7 WSW 20 32 11 17 1010.0 1009.3 0.0
22/04:00pm 24.8 18.5 3.5 25 10.7 WSW 26 39 14 21 1009.9 1009.2 0.0
22/03:30pm 25.2 18.5 3.8 25 10.9 WSW 28 41 15 22 1009.9 1009.2 0.0
22/03:00pm 24.7 19.3 4.5 27 10.4 W 22 33 12 18 1010.3 1009.6 0.0
22/02:30pm 24.8 18.5 4.0 26 10.6 W 26 39 14 21 1010.7 1010.0 0.0
22/02:00pm 24.3 17.7 4.1 27 10.2 W 28 37 15 20 1011.2 1010.5 0.0
22/01:30pm 23.4 16.3 3.4 27 10.0 WNW 30 43 16 23 1011.5 1010.8 0.0
22/01:00pm 23.0 16.5 4.5 30 9.4 WNW 28 43 15 23 1011.9 1011.2 0.0
22/12:30pm 22.0 14.8 3.2 29 9.2 WNW 30 44 16 24 1012.1 1011.4 0.0
22/12:00pm 20.9 13.4 3.2 31 8.6 W 32 44 17 24 1012.4 1011.7 0.0
22/11:48am 20.9 13.8 5.3 36 7.9 W 32 50 17 27 1012.7 1012.0 0.0
22/11:30am 21.5 14.3 3.2 30 9.0 W 30 44 16 24 1012.8 1012.2 0.0
22/11:00am 20.5 13.4 3.3 32 8.4 W 30 48 16 26 1013.1 1012.4 0.0
22/10:34am 22.5 14.3 -0.9 21 10.7 NW 32 52 17 28 1012.9 1012.3 0.0
22/10:30am 22.5 14.6 0.9 24 10.2 NW 32 44 17 24 1012.9 1012.3 0.0
22/10:00am 22.0 16.0 3.2 29 9.2 NW 24 35 13 19 1013.3 1012.6 0.0
22/09:30am 20.9 15.3 3.6 32 8.5 NNW 22 33 12 18 1013.2 1012.5 0.0
22/09:00am 20.1 13.7 1.0 28 8.9 NNW 24 35 13 19 1013.1 1012.4 0.0
22/08:30am 19.2 13.0 -0.2 27 8.7 NNW 22 32 12 17 1012.9 1012.3 0.0
22/08:00am 17.8 11.9 -0.5 29 8.1 NNW 20 28 11 15 1012.7 1012.0 0.0
22/07:30am 17.8 11.4 -1.4 27 8.3 N 22 30 12 16 1012.5 1011.8 0.0
22/07:00am 17.2 10.8 -1.4 28 8.0 N 22 32 12 17 1012.4 1011.7 0.0
22/06:30am 17.3 10.9 -1.4 28 8.1 N 22 35 12 19 1012.2 1011.5 0.0
22/06:00am 17.5 10.9 -0.7 29 8.0 N 24 32 13 17 1011.9 1011.2 0.0
22/05:30am 17.4 11.2 -0.3 30 7.8 N 22 32 12 17 1011.7 1011.0 0.0
22/05:00am 17.5 10.8 -1.2 28 8.1 N 24 33 13 18 1011.7 1011.0 0.0
22/04:30am 17.8 11.1 -0.9 28 8.2 N 24 33 13 18 1011.8 1011.1 0.0
22/04:00am 17.9 11.2 -0.8 28 8.2 N 24 33 13 18 1011.9 1011.2 0.0
22/03:30am 16.9 11.3 0.1 32 7.5 N 19 26 10 14 1012.0 1011.3 0.0
22/03:00am 16.1 10.6 0.3 34 7.0 NNE 19 24 10 13 1012.3 1011.6 0.0
22/02:30am 16.2 11.1 0.7 35 6.9 NNE 17 22 9 12 1012.6 1011.9 0.0
22/02:00am 16.2 11.5 0.7 35 6.9 NNE 15 20 8 11 1013.1 1012.4 0.0
22/01:30am 15.1 10.5 1.6 40 6.1 NE 15 20 8 11 1013.5 1012.8 0.0
22/01:00am 15.2 10.6 1.4 39 6.2 NE 15 19 8 10 1014.2 1013.5 0.0
22/12:30am 15.9 11.0 -0.3 33 7.1 NE 15 19 8 10 1014.5 1013.9 0.0
22/12:00am 15.8 11.3 -0.4 33 7.0 NE 13 15 7 8 1014.5 1013.9 0.0
 
Date/Time
CDT
Temp
°C
App
Temp
°C
Dew
Point
°C
Rel
Hum
%
Delta-T
°C
Wind Press
QNH
hPa
Press
MSL
hPa
Rain since
9am
mm
Dir  Spd
km/h
Gust
km/h
Spd
kts
Gust
kts
21/11:30pm 16.8 11.1 -0.4 31 7.5 NNE 19 22 10 12 1014.9 1014.3 0.0
21/11:00pm 16.4 10.8 0.1 33 7.2 NNE 19 22 10 12 1015.2 1014.5 0.0
21/10:30pm 16.2 11.0 2.2 39 6.4 NNE 19 22 10 12 1015.6 1014.9 0.0
21/10:00pm 16.7 12.2 4.4 44 6.0 NE 17 20 9 11 1015.8 1015.1 0.0
21/09:30pm 16.1 12.8 4.5 46 5.6 ENE 11 13 6 7 1015.8 1015.1 0.0
21/09:00pm 16.0 12.7 4.4 46 5.6 E 11 11 6 6 1015.7 1015.0 0.0
21/08:30pm 16.2 13.7 4.6 46 5.6 SSE 7 9 4 5 1015.6 1014.9 0.0
21/08:00pm 16.0 12.7 4.4 46 5.6 SSW 11 13 6 7 1015.6 1014.9 0.0
21/07:30pm 16.4 13.3 5.4 48 5.4 SW 11 13 6 7 1015.5 1014.8 0.0
21/07:00pm 17.9 15.3 6.1 46 6.0 WSW 9 13 5 7 1015.4 1014.7 0.0
21/06:30pm 19.0 16.6 7.1 46 6.2 WSW 9 15 5 8 1015.4 1014.7 0.0
21/06:00pm 19.3 17.0 7.4 46 6.2 SW 9 13 5 7 1015.3 1014.6 0.0
21/05:30pm 19.6 17.2 7.0 44 6.5 WSW 9 13 5 7 1015.3 1014.6 0.0
21/05:00pm 19.1 16.3 5.2 40 7.0 WSW 9 15 5 8 1015.5 1014.8 0.0
21/04:30pm 19.3 16.4 6.4 43 6.6 WNW 11 15 6 8 1015.7 1015.0 0.0
21/04:00pm 18.4 14.9 5.3 42 6.5 W 13 22 7 12 1016.0 1015.3 0.0
21/03:30pm 18.1 13.5 3.9 39 6.9 W 17 24 9 13 1016.5 1015.9 0.0
21/03:00pm 18.1 13.6 6.0 45 6.1 WSW 19 28 10 15 1016.7 1016.1 0.0
21/02:30pm 18.2 14.3 7.0 48 5.8 W 17 28 9 15 1017.2 1016.5 0.0
21/02:00pm 18.3 14.4 5.5 43 6.4 WNW 15 30 8 16 1017.6 1016.9 0.0
21/01:30pm 17.1 12.3 5.7 47 5.7 WNW 20 32 11 17 1017.9 1017.3 0.0
21/01:00pm 16.7 11.8 5.3 47 5.6 WNW 20 32 11 17 1018.3 1017.7 0.0
21/12:30pm 16.3 12.2 6.2 51 5.0 NW 17 28 9 15 1018.8 1018.2 0.0
21/12:00pm 15.7 11.8 7.0 56 4.4 NNW 17 22 9 12 1019.4 1018.8 0.0
21/11:30am 15.5 11.5 9.2 66 3.3 N 20 28 11 15 1019.8 1019.2 0.0
21/11:00am 13.7 9.9 7.5 66 3.1 N 17 26 9 14 1020.2 1019.6 0.0
21/10:30am 13.6 9.3 6.9 64 3.3 N 19 26 10 14 1020.5 1019.9 0.0
21/10:00am 12.9 8.3 5.8 62 3.4 N 19 24 10 13 1020.7 1020.1 0.0
21/09:30am 12.4 8.5 7.3 71 2.5 N 17 24 9 13 1020.8 1020.2 0.0
21/09:00am 11.5 8.6 8.0 79 1.8 NE 13 17 7 9 1020.6 1020.0 0.2
21/08:30am 10.3 7.3 7.5 83 1.4 NE 13 19 7 10 1020.6 1020.0 0.2
21/08:00am 9.1 6.3 6.9 86 1.1 NE 11 15 6 8 1020.6 1020.0 0.2
21/07:30am 8.1 4.9 7.0 93 0.5 ENE 13 17 7 9 1020.5 1019.9 0.2
21/07:00am 7.3 4.2 7.3 100 0.0 ENE 13 17 7 9 1020.3 1019.7 0.2
21/06:30am 6.8 3.6 6.8 100 0.0 ENE 13 17 7 9 1020.2 1019.6 0.2
21/06:00am 6.7 3.5 6.7 100 0.0 ENE 13 15 7 8 1019.9 1019.3 0.0
21/05:30am 6.8 4.0 6.8 100 0.0 ENE 11 13 6 7 1020.0 1019.4 0.0
21/05:00am 6.7 3.5 6.7 100 0.0 E 13 15 7 8 1019.8 1019.2 0.0
21/04:30am 6.6 3.0 6.6 100 0.0 E 15 17 8 9 1019.7 1019.1 0.0
21/04:00am 6.8 3.6 6.8 100 0.0 E 13 17 7 9 1019.8 1019.2 0.0
21/03:30am 6.3 3.0 6.3 100 0.0 E 13 15 7 8 1019.7 1019.1 0.0
21/03:00am 6.7 3.1 6.7 100 0.0 ESE 15 17 8 9 1019.6 1019.0 0.0
21/02:30am 6.6 3.0 6.6 100 0.0 ESE 15 17 8 9 1019.9 1019.3 0.0
21/02:00am 6.6 3.0 6.6 100 0.0 ESE 15 17 8 9 1020.2 1019.6 0.0
21/01:30am 6.7 3.1 6.7 100 0.0 ESE 15 17 8 9 1020.4 1019.8 0.0
21/01:00am 7.1 3.9 7.0 99 0.0 ESE 13 15 7 8 1021.0 1020.5 0.0
21/12:30am 7.3 3.7 6.9 97 0.2 SE 15 17 8 9 1021.4 1020.8 0.0
21/12:00am 7.3 3.6 6.4 94 0.4 SE 15 17 8 9 1021.7 1021.1 0.0
 
Date/Time
CDT
Temp
°C
App
Temp
°C
Dew
Point
°C
Rel
Hum
%
Delta-T
°C
Wind Press
QNH
hPa
Press
MSL
hPa
Rain since
9am
mm
Dir  Spd
km/h
Gust
km/h
Spd
kts
Gust
kts
20/11:30pm 7.4 4.1 6.2 92 0.6 SE 13 17 7 9 1021.9 1021.3 0.0
20/11:00pm 7.7 4.0 6.2 90 0.7 SE 15 19 8 10 1021.9 1021.3 0.0
20/10:30pm 7.8 4.0 5.9 88 0.9 SE 15 19 8 10 1021.9 1021.3 0.0

Latest Capital City Observations: Canberra | Sydney | Melbourne | Brisbane | Adelaide | Perth | Hobart | Darwin

Other Formats:

Comma delimited format used in spreadsheet applications
http://www.bom.gov.au/fwo/IDS60901/IDS60901.94678.axf

JavaScript Object Notation format (JSON) in row-major order
http://www.bom.gov.au/fwo/IDS60901/IDS60901.94678.json